Natalia, TX

4:46 AM CST on February 01, 2015 (GMT -0600)
Hondo Municipal | Change Station
CLOSE
Current Station
Airport
Location: Hondo,
Elevation: 928 ft
Nearby Weather Stations

Elev 928 ft 29.36 °N, 99.17 °W | Updated 8 minutes ago

Overcast
Overcast
59 °F
Feels Like 59 °F
N
4
Wind Variable Wind from East

Today
High -- | Low -- °F
--% Chance of Precip.
Yesterday
High -- | Low -- °F
Precip. -- in
7:24 AM 6:13 PM
Waxing Gibbous, 94% visible
Pressure 29.91 in
Visibility 3.0 miles
Clouds Scattered Clouds 300 ft
Overcast 2200 ft
Dew Point 58 °F
Humidity 96%
Rainfall 0.00 in
Snow Depth Not available.
UV 0 out of 12
Pollen 8.20 out of 12
Air Quality Not available.
Flu Activity Not available.
SPECI KHDO 011038Z AUTO 10003KT 3SM BR SCT003 OVC022 15/14 A2991 RMK AO2 T01500144 $

More Conditions Fewer Conditions

Pressure 29.91 in
Visibility 3.0 miles
Clouds Scattered Clouds 300 ft
Overcast 2200 ft
Dew Point 58 °F
Humidity 96%
Rainfall 0.00 in
Snow Depth Not available.
UV 0 out of 12
Pollen 8.20 out of 12
Air Quality Not available.
Flu Activity Not available.
SPECI KHDO 011038Z AUTO 10003KT 3SM BR SCT003 OVC022 15/14 A2991 RMK AO2 T01500144 $

More Conditions Fewer Conditions

Nowcast | as of 2:54 am CST on February 1, 2015

Through 5 am CST...areas of drizzle and light rain will continue to move northeast across The Hill Country and south central Texas. Rainfall amounts will be a trace to a few hundredths of an inch. Areas of fog will combine with the patchy drizzle to reduce visibilities to 3 to 5 miles...with a few locations falling to 1 mile or less. Motorists should use extra caution in areas where roadways are wet and visibilities are low.

×

10-Day Weather Forecast

Almanac

Astronomy

Feb. 01, 2015 Rise Set
Actual Time
Civil Twilight
Nautical Twilight
Astronomical Twilight
Moon
Length of Visible Light
Length of Day
Tomorrow will be .
, % of the Moon is Illuminated

Today's Extremes

State Highs State Lows

Community

WunderPhotos

Upload Photos

1,792,343 photos uploaded!

WunderBlogs® & News

Nearby

Air Quality

  Air Quality AQ Index Pollutant
Not available.

Snow Depth

Station Depth Elevation

Earthquake Activity

City Distance Mag. Time & Date
Minimum magnitude displayed is 2.5.

Coastal Water Temperatures

Place Temperature

Nearby Weather Stations